Time;durP1;ratioP1;P1;durP2;ratioP2;P2;SDS_P1;SDS_P2;PMS_P1;PMS_P2;Temp;Humidity;BMP_temperature;BMP_pressure;BME280_temperature;BME280_humidity;BME280_pressure;Samples;Min_cycle;Max_cycle;Signal;HPM_P1;HPM_P2
2021/06/18 00:01:22;;;;;;;11.30;6.30;;;;;;;19.31;100.00;96072.56;5022369;28;20148;-59
2021/06/18 00:03:51;;;;;;;7.05;6.30;;;;;;;19.23;100.00;96082.66;5026494;28;21476;-58
2021/06/18 00:06:19;;;;;;;9.13;6.22;;;;;;;18.98;100.00;96083.28;5006344;28;20068;-59
2021/06/18 00:08:48;;;;;;;7.68;5.80;;;;;;;18.53;100.00;96092.91;5023939;28;20084;-60
2021/06/18 00:11:16;;;;;;;8.10;5.20;;;;;;;18.42;100.00;96084.47;5019811;28;20069;-60
2021/06/18 00:13:45;;;;;;;8.90;6.13;;;;;;;18.56;100.00;96082.63;5019117;28;20070;-60
2021/06/18 00:16:14;;;;;;;8.00;6.47;;;;;;;18.65;100.00;96081.44;5007503;28;20081;-58
2021/06/18 00:18:43;;;;;;;6.90;6.18;;;;;;;18.78;100.00;96069.94;5024251;28;20480;-60
2021/06/18 00:21:11;;;;;;;9.77;8.13;;;;;;;18.87;100.00;96082.06;5021519;28;20061;-60
2021/06/18 00:23:40;;;;;;;10.15;7.78;;;;;;;18.91;100.00;96075.28;5024640;28;20061;-60
2021/06/18 00:26:08;;;;;;;7.53;6.50;;;;;;;18.94;100.00;96071.38;5026304;28;20072;-60
2021/06/18 00:28:36;;;;;;;9.57;6.70;;;;;;;18.87;100.00;96075.91;5026598;28;20072;-59
2021/06/18 00:31:05;;;;;;;10.27;6.72;;;;;;;18.91;100.00;96071.78;5023959;28;20086;-60
2021/06/18 00:33:35;;;;;;;10.70;6.63;;;;;;;18.72;100.00;96070.78;5021152;28;20483;-59
2021/06/18 00:36:04;;;;;;;8.02;6.93;;;;;;;18.78;100.00;96058.44;5021782;28;20076;-59
2021/06/18 00:38:32;;;;;;;9.75;7.38;;;;;;;18.79;100.00;96066.25;5024125;28;20472;-60
2021/06/18 00:41:01;;;;;;;10.70;7.13;;;;;;;18.56;100.00;96068.47;5023351;28;20069;-57
2021/06/18 00:43:29;;;;;;;7.78;6.97;;;;;;;18.48;100.00;96069.50;5024466;28;20532;-58
2021/06/18 00:45:58;;;;;;;9.68;6.35;;;;;;;18.55;100.00;96067.66;5023996;28;20077;-59
2021/06/18 00:48:27;;;;;;;12.65;7.18;;;;;;;18.52;100.00;96073.41;5007405;28;20069;-59
2021/06/18 00:50:57;;;;;;;11.77;7.20;;;;;;;18.58;100.00;96069.91;5025155;28;20632;-59
2021/06/18 00:53:26;;;;;;;7.90;7.10;;;;;;;18.53;100.00;96072.38;5024054;28;20061;-59
2021/06/18 00:55:54;;;;;;;11.50;8.18;;;;;;;18.58;100.00;96074.41;5007171;28;20077;-60
2021/06/18 00:58:23;;;;;;;13.07;8.50;;;;;;;18.57;100.00;96070.09;5007272;28;20065;-60
2021/06/18 01:00:51;;;;;;;14.15;8.13;;;;;;;18.42;100.00;96070.31;5011238;28;20077;-56
2021/06/18 01:03:20;;;;;;;10.18;8.68;;;;;;;18.55;100.00;96069.47;5001233;28;20084;-58
2021/06/18 01:05:51;;;;;;;10.90;8.43;;;;;;;18.52;100.00;96062.72;5024897;28;20061;-59
2021/06/18 01:08:24;;;;;;;13.63;9.45;;;;;;;18.55;100.00;96061.47;5016868;28;20071;-60
2021/06/18 01:10:58;;;;;;;10.50;9.40;;;;;;;18.44;100.00;96069.09;5023852;28;20053;-58
2021/06/18 01:13:48;;;;;;;13.27;9.77;;;;;;;18.59;100.00;96060.06;5002185;28;20069;-59
2021/06/18 01:16:19;;;;;;;11.20;9.43;;;;;;;18.70;100.00;96062.09;5015314;28;20410;-60
2021/06/18 01:18:51;;;;;;;12.02;8.73;;;;;;;18.63;100.00;96062.09;5025964;28;20075;-60
2021/06/18 01:21:25;;;;;;;17.10;9.80;;;;;;;18.72;100.00;96052.91;5021642;28;20061;-59
2021/06/18 01:24:00;;;;;;;11.70;9.52;;;;;;;18.77;100.00;96054.94;5020480;28;20198;-59
2021/06/18 01:26:52;;;;;;;13.05;10.88;;;;;;;18.69;100.00;96052.47;5025774;28;20057;-59
2021/06/18 01:29:22;;;;;;;10.65;9.05;;;;;;;18.58;100.00;96061.91;5019661;28;20053;-60
2021/06/18 01:31:51;;;;;;;10.88;7.43;;;;;;;18.45;100.00;96054.69;5007779;28;20072;-60
2021/06/18 01:34:25;;;;;;;9.57;7.65;;;;;;;18.19;100.00;96057.31;5021918;28;20080;-59
2021/06/18 01:36:56;;;;;;;10.05;6.95;;;;;;;18.03;100.00;96061.16;5027003;28;20065;-59
2021/06/18 01:39:24;;;;;;;12.30;7.28;;;;;;;17.98;100.00;96053.78;5020928;28;20129;-60
2021/06/18 01:41:54;;;;;;;9.50;6.85;;;;;;;18.22;100.00;96056.91;5004267;28;20465;-59
2021/06/18 01:44:24;;;;;;;7.22;6.38;;;;;;;18.18;100.00;96050.34;5021257;28;20458;-59
2021/06/18 01:46:54;;;;;;;7.43;6.72;;;;;;;18.09;100.00;96048.88;5025267;28;20204;-59
2021/06/18 01:49:23;;;;;;;8.88;6.95;;;;;;;18.06;100.00;96046.59;5019919;28;20069;-60
2021/06/18 01:51:53;;;;;;;10.05;7.22;;;;;;;18.11;100.00;96047.66;5026029;28;20123;-60
2021/06/18 01:54:26;;;;;;;8.70;6.65;;;;;;;18.07;100.00;96041.09;5006491;28;20061;-60
2021/06/18 01:56:57;;;;;;;9.00;7.22;;;;;;;18.03;100.00;96040.66;5020411;28;20475;-60
2021/06/18 01:59:27;;;;;;;;;;;;;;;17.96;100.00;96033.66;5014232;28;20156;-60
2021/06/18 02:01:56;;;;;;;10.48;6.95;;;;;;;17.66;100.00;96035.78;5023049;28;19960;-59
2021/06/18 02:04:26;;;;;;;10.10;7.05;;;;;;;17.70;100.00;96035.19;5020099;28;20536;-59
2021/06/18 02:06:55;;;;;;;8.95;7.20;;;;;;;17.87;100.00;96037.53;5021417;28;20077;-60
2021/06/18 02:09:26;;;;;;;11.98;7.68;;;;;;;17.91;100.00;96034.25;5020799;28;20061;-58
2021/06/18 02:11:55;;;;;;;10.27;6.70;;;;;;;17.86;100.00;96043.88;5022205;28;20084;-58
2021/06/18 02:14:28;;;;;;;11.07;7.32;;;;;;;17.81;100.00;96038.34;5024732;28;20080;-62
2021/06/18 02:16:59;;;;;;;11.77;8.18;;;;;;;17.68;100.00;96033.72;5004629;28;20454;-58
2021/06/18 02:19:29;;;;;;;14.48;8.73;;;;;;;17.62;100.00;96046.03;5018613;28;20540;-60
2021/06/18 02:21:59;;;;;;;9.73;8.68;;;;;;;17.29;100.00;96041.34;5021133;28;20073;-60
2021/06/18 02:24:29;;;;;;;10.13;8.63;;;;;;;17.20;100.00;96047.03;5018597;28;20115;-61
2021/06/18 02:26:57;;;;;;;;;;;;;;;17.11;100.00;96045.56;5015396;28;20510;-61
2021/06/18 02:29:27;;;;;;;12.43;8.90;;;;;;;17.15;100.00;96039.63;5020362;28;19959;-60
2021/06/18 02:31:58;;;;;;;14.90;8.63;;;;;;;17.09;100.00;96043.06;5020140;28;20501;-58
2021/06/18 02:34:27;;;;;;;12.82;8.82;;;;;;;17.08;100.00;96047.59;5004849;28;20065;-59
2021/06/18 02:36:55;;;;;;;12.90;9.27;;;;;;;17.30;100.00;96043.00;5006434;28;20076;-63
2021/06/18 02:39:24;;;;;;;13.30;9.68;;;;;;;17.10;100.00;96044.72;5023009;28;20061;-62
2021/06/18 02:41:52;;;;;;;13.65;9.68;;;;;;;17.08;100.00;96046.78;5022352;28;20076;-60
2021/06/18 02:44:21;;;;;;;11.82;9.48;;;;;;;16.95;100.00;96052.81;5022307;28;20060;-60
2021/06/18 02:46:57;;;;;;;13.77;10.68;;;;;;;16.95;100.00;96060.81;5002117;28;20061;-60
2021/06/18 02:49:33;;;;;;;13.30;10.40;;;;;;;17.00;100.00;96060.25;5020595;28;20064;-60
2021/06/18 02:52:05;;;;;;;13.60;9.65;;;;;;;17.00;100.00;96061.06;5021961;28;20076;-60
2021/06/18 02:54:37;;;;;;;13.20;9.45;;;;;;;16.90;100.00;96067.75;5017662;28;20068;-57
2021/06/18 02:57:10;;;;;;;11.10;9.30;;;;;;;16.77;100.00;96068.47;5020739;28;20081;-60
2021/06/18 02:59:45;;;;;;;17.35;9.80;;;;;;;16.84;100.00;96066.69;5002606;28;20072;-60
2021/06/18 03:02:17;;;;;;;13.32;10.00;;;;;;;16.77;100.00;96066.63;5018057;28;20077;-62
2021/06/18 03:04:46;;;;;;;15.57;9.98;;;;;;;16.81;100.00;96067.06;5021565;28;20057;-62
2021/06/18 03:07:18;;;;;;;13.73;11.10;;;;;;;16.92;100.00;96077.19;5017497;28;20064;-61
2021/06/18 03:09:50;;;;;;;17.60;10.75;;;;;;;17.09;100.00;96077.72;5025683;28;20064;-60
2021/06/18 03:12:22;;;;;;;13.43;10.90;;;;;;;16.94;100.00;96077.81;5003397;28;20072;-60
2021/06/18 03:14:51;;;;;;;12.15;10.52;;;;;;;16.90;100.00;96079.22;5023253;28;20068;-62
2021/06/18 03:17:21;;;;;;;18.85;10.05;;;;;;;16.94;100.00;96075.16;5020649;28;20077;-59
2021/06/18 03:19:54;;;;;;;13.23;10.63;;;;;;;17.17;100.00;96079.41;5022021;28;20441;-62
2021/06/18 03:22:23;;;;;;;12.68;10.10;;;;;;;17.08;100.00;96084.88;5003924;28;20077;-58
2021/06/18 03:24:56;;;;;;;14.10;10.90;;;;;;;17.03;100.00;96084.66;5004948;28;20080;-61
2021/06/18 03:27:25;;;;;;;14.65;10.60;;;;;;;16.99;100.00;96091.38;5018588;28;20061;-56
2021/06/18 03:29:54;;;;;;;13.68;10.93;;;;;;;16.95;100.00;96086.63;5016841;28;20076;-60
2021/06/18 03:32:24;;;;;;;19.70;11.73;;;;;;;16.75;100.00;96097.13;5021858;28;20060;-60
2021/06/18 03:34:53;;;;;;;14.13;11.15;;;;;;;16.94;100.00;96096.47;5000226;28;20068;-59
2021/06/18 03:37:22;;;;;;;16.23;10.70;;;;;;;17.06;100.00;96096.75;5021137;28;20057;-63
2021/06/18 03:39:51;;;;;;;12.90;9.30;;;;;;;17.24;100.00;96104.25;5006650;28;20079;-60
2021/06/18 03:42:19;;;;;;;10.25;8.75;;;;;;;17.50;100.00;96098.25;5004070;28;20133;-57
2021/06/18 03:44:49;;;;;;;10.77;8.48;;;;;;;17.73;100.00;96100.66;5018194;28;20076;-58
2021/06/18 03:47:17;;;;;;;13.40;8.80;;;;;;;17.67;100.00;96102.25;5024277;28;20545;-63
2021/06/18 03:49:51;;;;;;;9.95;8.95;;;;;;;17.71;100.00;96100.00;5019152;28;20062;-58
2021/06/18 03:52:21;;;;;;;13.23;8.63;;;;;;;17.74;100.00;96110.28;5021421;28;20073;-60
2021/06/18 03:54:49;;;;;;;12.45;8.90;;;;;;;18.49;100.00;96100.50;5021802;28;20076;-60
2021/06/18 03:57:19;;;;;;;15.50;9.60;;;;;;;20.25;100.00;96092.63;5027633;28;20488;-60
2021/06/18 03:59:48;;;;;;;11.60;8.80;;;;;;;20.65;100.00;96097.78;5021356;28;20058;-60
2021/06/18 04:02:17;;;;;;;13.15;8.80;;;;;;;21.45;100.00;96089.91;5022712;28;20077;-61
2021/06/18 04:04:46;;;;;;;10.20;8.82;;;;;;;22.26;100.00;96086.09;5022398;28;20077;-60
2021/06/18 04:07:16;;;;;;;10.45;8.85;;;;;;;21.91;100.00;96096.59;5027224;28;20085;-60
2021/06/18 04:09:45;;;;;;;10.45;8.63;;;;;;;22.69;100.00;96093.13;5021650;28;20069;-59
2021/06/18 04:12:14;;;;;;;10.73;8.50;;;;;;;22.89;100.00;96092.81;5026112;28;20061;-62
2021/06/18 04:14:43;;;;;;;16.67;8.95;;;;;;;23.45;98.27;96086.09;5023993;28;20061;-60
2021/06/18 04:17:11;;;;;;;10.70;8.50;;;;;;;24.52;88.18;96089.38;5025027;28;20069;-60
2021/06/18 04:19:41;;;;;;;9.57;8.57;;;;;;;23.51;92.06;96103.19;5021152;28;20062;-59
2021/06/18 04:22:11;;;;;;;10.45;9.43;;;;;;;24.67;85.17;96097.75;5025223;28;20088;-59
2021/06/18 04:24:41;;;;;;;11.65;9.10;;;;;;;25.36;78.51;96086.75;5026831;28;20713;-59
2021/06/18 04:27:09;;;;;;;11.98;8.98;;;;;;;24.85;82.97;96092.16;5025002;28;20156;-61
2021/06/18 04:29:37;;;;;;;9.85;8.73;;;;;;;24.80;84.73;96093.94;5026171;28;20072;-60
2021/06/18 04:32:06;;;;;;;11.68;8.93;;;;;;;25.94;73.60;96090.84;5025212;28;20474;-59
2021/06/18 04:34:35;;;;;;;12.15;9.10;;;;;;;26.58;67.76;96092.97;5025384;28;20069;-60
2021/06/18 04:37:04;;;;;;;11.18;9.80;;;;;;;26.45;69.64;96104.13;5023730;28;20081;-59
2021/06/18 04:39:32;;;;;;;12.98;11.57;;;;;;;25.37;78.00;96104.59;5028629;28;20069;-59
2021/06/18 04:42:03;;;;;;;13.25;10.32;;;;;;;25.36;80.52;96104.84;5022203;28;20072;-59
2021/06/18 04:44:32;;;;;;;10.90;9.73;;;;;;;26.50;73.52;96106.94;5018690;28;20570;-60
2021/06/18 04:47:01;;;;;;;11.60;10.20;;;;;;;27.14;68.01;96101.59;5022857;28;20069;-59
2021/06/18 04:49:29;;;;;;;13.98;10.50;;;;;;;27.33;68.03;96103.94;5023138;28;20095;-61
2021/06/18 04:51:58;;;;;;;15.85;11.52;;;;;;;27.43;64.97;96099.41;5003485;28;20079;-58
2021/06/18 04:54:26;;;;;;;13.60;11.35;;;;;;;26.93;67.31;96097.88;5025621;28;20088;-61
2021/06/18 04:56:55;;;;;;;13.13;11.77;;;;;;;27.38;65.90;96110.19;5017169;28;20066;-61
2021/06/18 04:59:25;;;;;;;13.68;12.25;;;;;;;28.78;56.17;96103.28;5025931;28;20076;-61
2021/06/18 05:01:53;;;;;;;13.45;12.15;;;;;;;28.28;58.37;96112.06;5021928;28;20087;-59
2021/06/18 05:04:22;;;;;;;12.57;11.20;;;;;;;29.14;55.45;96107.94;5021443;28;20083;-59
2021/06/18 05:06:50;;;;;;;11.57;10.55;;;;;;;29.00;57.61;96108.47;5024314;28;20077;-61
2021/06/18 05:09:19;;;;;;;12.55;11.00;;;;;;;30.11;51.60;96105.09;5026090;28;20088;-59
2021/06/18 05:11:47;;;;;;;13.95;11.40;;;;;;;29.69;55.19;96109.03;5017292;28;20069;-58
2021/06/18 05:14:15;;;;;;;12.20;11.00;;;;;;;28.35;59.58;96109.91;5024559;28;20076;-61
2021/06/18 05:16:45;;;;;;;12.93;11.50;;;;;;;29.12;56.41;96121.00;5019838;28;20065;-60
2021/06/18 05:19:13;;;;;;;;;;;;;;;27.27;66.63;96122.03;5024974;28;20092;-60
2021/06/18 05:21:42;;;;;;;12.18;10.73;;;;;;;27.16;68.61;96133.84;5025813;28;19973;-60
2021/06/18 05:24:11;;;;;;;16.85;11.48;;;;;;;27.27;65.05;96135.56;5021255;28;20089;-61
2021/06/18 05:26:39;;;;;;;13.95;10.85;;;;;;;27.33;67.53;96133.72;5026874;28;20076;-61
2021/06/18 05:29:07;;;;;;;12.00;10.85;;;;;;;28.00;62.98;96130.38;5021726;28;20481;-61
2021/06/18 05:31:36;;;;;;;12.63;10.63;;;;;;;27.57;67.81;96132.28;5020377;28;20041;-61
2021/06/18 05:34:06;;;;;;;11.50;10.40;;;;;;;27.32;71.06;96129.34;5024384;28;20082;-61
2021/06/18 05:36:34;;;;;;;;;;;;;;;27.64;67.18;96123.91;5026418;28;20046;-62
2021/06/18 05:39:03;;;;;;;11.52;10.27;;;;;;;28.26;65.91;96125.91;5018538;28;19952;-60
2021/06/18 05:41:32;;;;;;;11.80;10.60;;;;;;;28.32;67.55;96124.00;5022322;28;20057;-60
2021/06/18 05:44:00;;;;;;;12.27;10.30;;;;;;;28.47;65.85;96123.28;5017205;28;20065;-61
2021/06/18 05:46:29;;;;;;;11.40;9.70;;;;;;;26.78;75.85;96129.41;5021295;28;20077;-61
2021/06/18 05:48:57;;;;;;;12.15;10.63;;;;;;;26.78;76.28;96130.22;5025275;28;20085;-60
2021/06/18 05:51:27;;;;;;;13.20;10.40;;;;;;;26.44;81.90;96127.66;5021557;28;20085;-60
2021/06/18 05:53:55;;;;;;;;;;;;;;;26.65;77.95;96127.91;5020456;28;20076;-61
2021/06/18 05:56:23;;;;;;;12.30;11.20;;;;;;;26.93;75.49;96133.06;5023880;28;19953;-60
2021/06/18 05:58:52;;;;;;;15.07;11.82;;;;;;;26.74;76.61;96129.09;5019805;28;20061;-61
2021/06/18 06:01:20;;;;;;;13.35;11.30;;;;;;;27.12;73.99;96138.97;5024920;28;20081;-61
2021/06/18 06:03:59;;;;;;;12.85;11.55;;;;;;;26.59;73.99;96142.44;5024618;28;20077;-58
2021/06/18 06:06:30;;;;;;;12.88;11.68;;;;;;;26.70;73.29;96139.63;5019458;28;20061;-60
2021/06/18 06:08:58;;;;;;;14.02;12.15;;;;;;;26.08;77.67;96141.81;5022707;28;20073;-60
2021/06/18 06:11:29;;;;;;;14.10;12.70;;;;;;;26.04;80.31;96142.31;5024782;28;20466;-61
2021/06/18 06:14:00;;;;;;;14.43;13.00;;;;;;;25.74;92.25;96144.56;5021256;28;20549;-60
2021/06/18 06:16:28;;;;;;;21.00;13.30;;;;;;;25.92;89.69;96143.50;5021880;28;20077;-61
2021/06/18 06:18:57;;;;;;;15.55;13.95;;;;;;;25.58;94.45;96149.75;5026620;28;20568;-61
2021/06/18 06:21:26;;;;;;;15.45;13.82;;;;;;;25.59;94.57;96145.16;5023839;28;20061;-61
2021/06/18 06:23:55;;;;;;;16.02;13.70;;;;;;;26.35;87.78;96145.41;5022444;28;20079;-61
2021/06/18 06:26:24;;;;;;;15.77;14.15;;;;;;;26.54;83.71;96153.22;5019349;28;20069;-61
2021/06/18 06:28:52;;;;;;;16.77;14.20;;;;;;;26.81;77.68;96148.66;5028829;28;20080;-59
2021/06/18 06:31:21;;;;;;;15.20;13.70;;;;;;;26.82;78.50;96157.59;5015816;28;20524;-60
2021/06/18 06:33:49;;;;;;;16.58;14.25;;;;;;;26.81;81.72;96161.38;5021343;28;20081;-60
2021/06/18 06:36:18;;;;;;;17.50;14.05;;;;;;;27.04;76.10;96157.50;5023244;28;20559;-60
2021/06/18 06:38:46;;;;;;;15.85;12.52;;;;;;;26.98;75.36;96160.19;5023123;28;20072;-60
2021/06/18 06:41:16;;;;;;;15.48;12.40;;;;;;;27.07;72.22;96154.31;5020738;28;20080;-61
2021/06/18 06:43:45;;;;;;;14.43;12.93;;;;;;;26.65;75.70;96161.19;5024803;28;20489;-59
2021/06/18 06:46:13;;;;;;;17.75;13.02;;;;;;;27.32;72.37;96159.97;5020988;28;20212;-61
2021/06/18 06:48:42;;;;;;;13.48;12.18;;;;;;;26.83;76.42;96157.31;5021800;28;20077;-60
2021/06/18 06:51:10;;;;;;;13.50;12.10;;;;;;;26.76;70.10;96162.13;5018874;28;20068;-61
2021/06/18 06:53:39;;;;;;;13.00;11.65;;;;;;;26.69;73.22;96162.31;5021722;28;20061;-60
2021/06/18 06:56:08;;;;;;;12.50;11.07;;;;;;;27.14;72.14;96163.06;5012787;28;20073;-61
2021/06/18 06:58:37;;;;;;;15.38;12.68;;;;;;;26.69;72.33;96162.31;5019329;28;20070;-61
2021/06/18 07:01:06;;;;;;;13.43;11.48;;;;;;;27.12;70.33;96148.94;5020357;28;20084;-60
2021/06/18 07:03:34;;;;;;;12.27;11.02;;;;;;;27.46;69.04;96149.53;5024222;28;20697;-60
2021/06/18 07:06:03;;;;;;;14.38;11.35;;;;;;;27.39;70.87;96143.50;5021936;28;20073;-61
2021/06/18 07:08:32;;;;;;;13.95;12.35;;;;;;;26.92;69.08;96142.25;5020253;28;20066;-60
2021/06/18 07:11:00;;;;;;;13.18;11.60;;;;;;;26.78;71.90;96143.75;5022464;28;20663;-59
2021/06/18 07:13:29;;;;;;;18.88;11.15;;;;;;;26.96;71.63;96146.09;5021396;28;21137;-61
2021/06/18 07:15:59;;;;;;;12.35;10.77;;;;;;;26.79;70.28;96144.56;5024261;28;20089;-59
2021/06/18 07:18:27;;;;;;;12.85;10.55;;;;;;;26.82;71.90;96144.06;5017896;28;20076;-59
2021/06/18 07:20:56;;;;;;;13.20;10.27;;;;;;;27.53;69.83;96141.16;5021609;28;20061;-61
2021/06/18 07:23:24;;;;;;;17.75;10.90;;;;;;;27.27;67.63;96142.88;5013621;28;20116;-61
2021/06/18 07:25:53;;;;;;;11.13;10.07;;;;;;;27.80;67.38;96131.06;5020412;28;20069;-56
2021/06/18 07:28:22;;;;;;;11.70;10.50;;;;;;;27.63;70.59;96141.22;5020956;28;20073;-60
2021/06/18 07:30:50;;;;;;;11.82;10.70;;;;;;;28.01;65.19;96140.16;5030311;28;20077;-62
2021/06/18 07:33:22;;;;;;;14.48;11.82;;;;;;;27.96;68.72;96136.59;5020607;28;20113;-62
2021/06/18 07:35:51;;;;;;;128.82;16.30;;;;;;;27.98;72.08;96137.13;5023569;28;20702;-62
2021/06/18 07:38:19;;;;;;;13.55;12.02;;;;;;;26.94;76.19;96147.41;5026427;28;20069;-62
2021/06/18 07:40:48;;;;;;;13.85;10.90;;;;;;;27.92;68.01;96139.81;5007349;28;20061;-61
2021/06/18 07:43:16;;;;;;;12.48;11.27;;;;;;;28.11;67.55;96139.38;5021731;28;20076;-61
2021/06/18 07:45:45;;;;;;;13.30;12.02;;;;;;;27.77;69.12;96139.75;5029679;28;20553;-61
2021/06/18 07:48:36;;;;;;;14.70;13.02;;;;;;;28.69;62.00;96142.06;5006977;28;20069;-60
2021/06/18 07:51:04;;;;;;;13.68;12.27;;;;;;;28.17;68.13;96139.13;5022549;28;20080;-62
2021/06/18 07:53:33;;;;;;;16.48;13.43;;;;;;;28.68;64.56;96141.25;5023175;28;20076;-61
2021/06/18 07:56:01;;;;;;;13.70;12.30;;;;;;;28.61;63.58;96141.50;5025341;28;20079;-61
2021/06/18 07:58:30;;;;;;;15.60;13.70;;;;;;;27.23;74.86;96149.88;5023704;28;20580;-60
2021/06/18 08:00:58;;;;;;;13.88;12.13;;;;;;;28.50;66.55;96139.84;5028829;28;20516;-62
2021/06/18 08:03:27;;;;;;;16.77;12.80;;;;;;;28.74;63.62;96137.47;5021117;28;22497;-59
2021/06/18 08:05:57;;;;;;;14.77;13.10;;;;;;;29.23;60.33;96141.63;5025542;28;20077;-63
2021/06/18 08:08:25;;;;;;;16.20;12.35;;;;;;;28.73;63.85;96145.88;5019413;28;20081;-61
2021/06/18 08:10:54;;;;;;;17.25;12.60;;;;;;;29.26;60.90;96141.91;5018472;28;20532;-63
2021/06/18 08:13:22;;;;;;;15.93;13.25;;;;;;;28.95;64.73;96141.03;5023449;28;20073;-62
2021/06/18 08:15:51;;;;;;;14.07;11.80;;;;;;;29.24;60.23;96132.41;5022759;28;20124;-61
2021/06/18 08:18:19;;;;;;;15.93;12.18;;;;;;;28.99;62.15;96133.16;5027051;28;20064;-61
2021/06/18 08:20:48;;;;;;;17.50;13.30;;;;;;;29.28;60.20;96139.72;5023241;28;20168;-60
2021/06/18 08:23:18;;;;;;;16.30;12.55;;;;;;;29.53;58.68;96141.63;5021138;28;20068;-61
2021/06/18 08:25:48;;;;;;;16.42;12.38;;;;;;;30.06;54.21;96138.56;5024710;28;20073;-61
2021/06/18 08:28:18;;;;;;;15.75;12.10;;;;;;;30.03;54.59;96141.84;5025767;28;20075;-62
2021/06/18 08:30:46;;;;;;;14.43;11.50;;;;;;;30.17;53.17;96136.63;5003555;28;20072;-61
2021/06/18 08:33:18;;;;;;;18.00;10.98;;;;;;;29.43;59.66;96136.22;5024888;28;20208;-62
2021/06/18 08:35:47;;;;;;;11.77;10.50;;;;;;;29.73;60.69;96137.28;5024765;28;20065;-62
2021/06/18 08:38:16;;;;;;;12.87;10.67;;;;;;;29.91;57.33;96134.00;5017647;28;20083;-61
2021/06/18 08:40:46;;;;;;;13.90;10.85;;;;;;;30.30;54.57;96140.69;5021023;28;20076;-61
2021/06/18 08:43:15;;;;;;;13.32;10.68;;;;;;;29.44;56.89;96139.75;5021886;28;20077;-60
2021/06/18 08:45:43;;;;;;;10.20;9.10;;;;;;;30.12;57.61;96134.75;5021693;28;20506;-60
2021/06/18 08:48:12;;;;;;;11.93;9.55;;;;;;;30.31;54.25;96134.16;5025143;28;20065;-60
2021/06/18 08:50:40;;;;;;;11.55;10.10;;;;;;;30.16;53.39;96138.53;5023060;28;20072;-61
2021/06/18 08:53:11;;;;;;;14.45;10.57;;;;;;;30.63;50.42;96139.19;5024754;28;20069;-61
2021/06/18 08:55:39;;;;;;;12.55;10.18;;;;;;;30.66;52.32;96142.16;5020933;28;20521;-60
2021/06/18 08:58:09;;;;;;;13.20;10.35;;;;;;;29.82;55.36;96146.50;5025671;28;20073;-60
2021/06/18 09:00:37;;;;;;;10.85;9.60;;;;;;;30.87;52.24;96139.38;5022585;28;20330;-62
2021/06/18 09:03:35;;;;;;;17.38;9.20;;;;;;;31.10;51.61;96148.72;5025081;28;20065;-62
2021/06/18 09:06:19;;;;;;;18.88;9.68;;;;;;;31.03;49.92;96142.78;5020807;28;20533;-62
2021/06/18 09:09:09;;;;;;;10.85;9.75;;;;;;;31.06;48.62;96144.94;5023769;28;20065;-61
2021/06/18 09:11:38;;;;;;;14.75;9.93;;;;;;;31.08;49.03;96145.50;5020082;28;20446;-61
2021/06/18 09:14:30;;;;;;;14.60;9.17;;;;;;;30.81;48.39;96149.47;5022998;28;20077;-62
2021/06/18 09:17:03;;;;;;;12.77;8.75;;;;;;;30.08;48.61;96146.47;5017271;28;20069;-61
2021/06/18 09:19:31;;;;;;;14.07;9.85;;;;;;;30.37;49.87;96143.94;5024457;28;20072;-60
2021/06/18 09:22:01;;;;;;;15.48;9.65;;;;;;;31.12;49.16;96149.25;5026594;28;20080;-61
2021/06/18 09:24:30;;;;;;;17.90;10.13;;;;;;;31.61;49.05;96145.63;5022945;28;20065;-61
2021/06/18 09:26:59;;;;;;;16.08;10.43;;;;;;;31.25;48.86;96142.34;5021596;28;20069;-61
2021/06/18 09:29:30;;;;;;;11.97;9.93;;;;;;;31.23;46.76;96150.00;5024777;28;20072;-61
2021/06/18 09:32:00;;;;;;;12.75;9.23;;;;;;;32.05;46.47;96144.69;5019023;28;20065;-61
2021/06/18 09:34:46;;;;;;;16.30;9.25;;;;;;;31.68;48.98;96146.09;5023122;28;20080;-61
2021/06/18 09:37:20;;;;;;;16.38;9.10;;;;;;;31.69;47.30;96150.44;5020674;28;20164;-61
2021/06/18 09:40:16;;;;;;;16.70;10.00;;;;;;;31.55;48.64;96147.56;5023530;28;20109;-61
2021/06/18 09:42:55;;;;;;;11.70;10.05;;;;;;;31.70;46.70;96146.63;4985975;28;20357;-61
2021/06/18 09:45:26;;;;;;;14.27;9.60;;;;;;;31.47;47.86;96148.19;5020053;28;20065;-62
2021/06/18 09:48:08;;;;;;;12.23;9.20;;;;;;;31.97;48.84;96148.03;5017300;28;20101;-62
2021/06/18 09:50:39;;;;;;;19.98;9.57;;;;;;;32.00;45.82;96142.78;5022043;28;20472;-62
2021/06/18 09:53:12;;;;;;;14.45;9.57;;;;;;;31.48;45.98;96140.81;5018009;28;20072;-61
2021/06/18 09:55:42;;;;;;;13.32;9.45;;;;;;;31.30;47.67;96150.50;5021811;28;20156;-62
2021/06/18 09:58:11;;;;;;;15.48;9.00;;;;;;;31.85;47.78;96143.75;5021941;28;20080;-61
2021/06/18 10:00:41;;;;;;;10.43;9.32;;;;;;;32.21;45.80;96137.13;5019607;28;20077;-60
2021/06/18 10:03:10;;;;;;;;;;;;;;;32.00;46.20;96134.63;5021560;28;20065;-60
2021/06/18 10:05:39;;;;;;;14.35;9.00;;;;;;;32.57;44.77;96127.41;5022509;28;19968;-61
2021/06/18 10:08:08;;;;;;;13.43;9.13;;;;;;;32.01;47.16;96135.47;5023443;28;20064;-62
2021/06/18 10:10:38;;;;;;;12.82;8.15;;;;;;;32.02;47.59;96145.25;5022469;28;20989;-62
2021/06/18 10:13:06;;;;;;;;;;;;;;;32.02;45.20;96137.88;5024305;28;20080;-62
2021/06/18 10:15:38;;;;;;;12.93;8.35;;;;;;;31.46;44.78;96145.78;5019214;28;20356;-61
2021/06/18 10:18:12;;;;;;;11.38;8.15;;;;;;;32.11;43.59;96140.78;5024119;28;20529;-60
2021/06/18 10:20:40;;;;;;;8.77;7.63;;;;;;;31.50;43.39;96144.09;5022040;28;20474;-61
2021/06/18 10:23:12;;;;;;;11.10;7.22;;;;;;;31.80;44.54;96135.63;5019112;28;20068;-61
2021/06/18 10:25:44;;;;;;;12.50;7.85;;;;;;;32.40;43.43;96137.97;5018692;28;20066;-61
2021/06/18 10:28:20;;;;;;;12.63;7.28;;;;;;;32.57;44.37;96134.81;5019465;28;20092;-61
2021/06/18 10:30:49;;;;;;;9.13;7.18;;;;;;;32.27;41.54;96141.41;5023753;28;20525;-61
2021/06/18 10:33:35;;;;;;;11.07;6.88;;;;;;;32.56;43.54;96136.72;5024846;28;20092;-62
2021/06/18 10:36:22;;;;;;;12.15;6.68;;;;;;;32.73;40.74;96133.50;5019191;28;20529;-61
2021/06/18 10:39:03;;;;;;;7.63;6.65;;;;;;;32.84;41.00;96128.69;5017766;28;20092;-61
2021/06/18 10:41:32;;;;;;;11.02;7.30;;;;;;;32.24;40.42;96137.34;5025556;28;20072;-61
2021/06/18 10:44:01;;;;;;;9.63;7.20;;;;;;;31.62;42.21;96136.34;5024714;28;20077;-61
2021/06/18 10:46:33;;;;;;;9.70;6.60;;;;;;;32.71;41.29;96130.22;5012201;28;20068;-61
2021/06/18 10:49:10;;;;;;;10.13;6.95;;;;;;;32.44;42.27;96125.41;5023089;28;20084;-61
2021/06/18 10:51:44;;;;;;;13.60;7.78;;;;;;;32.40;41.68;96121.59;5019200;28;20451;-62
2021/06/18 10:54:17;;;;;;;11.13;7.28;;;;;;;32.47;41.32;96127.56;5022634;28;20064;-62
2021/06/18 10:57:02;;;;;;;8.38;6.55;;;;;;;32.82;41.06;96122.72;5021784;28;20037;-62
2021/06/18 10:59:42;;;;;;;7.13;6.40;;;;;;;32.89;40.35;96125.06;5020659;28;20075;-61
2021/06/18 11:02:30;;;;;;;;;;;;;;;32.61;40.44;96116.72;5020570;28;20071;-62
2021/06/18 11:05:01;;;;;;;6.97;6.28;;;;;;;32.81;37.57;96123.81;5020067;28;19960;-62
2021/06/18 11:07:31;;;;;;;8.45;5.85;;;;;;;33.03;36.23;96117.78;5019459;28;20088;-61
2021/06/18 11:10:00;;;;;;;7.68;5.40;;;;;;;33.27;34.84;96117.69;5022173;28;20551;-61
2021/06/18 11:12:37;;;;;;;9.00;5.80;;;;;;;32.99;35.23;96117.56;5016619;28;20085;-62
2021/06/18 11:15:08;;;;;;;7.57;5.70;;;;;;;33.09;35.50;96105.66;5018355;28;20049;-61
2021/06/18 11:17:42;;;;;;;6.32;5.60;;;;;;;33.28;35.71;96109.19;5018421;28;20076;-62
2021/06/18 11:20:13;;;;;;;7.05;5.22;;;;;;;33.21;35.63;96113.41;5024227;28;20095;-61
2021/06/18 11:22:47;;;;;;;6.20;5.32;;;;;;;33.17;35.07;96107.72;5017059;28;20582;-62
2021/06/18 11:25:56;;;;;;;7.03;5.05;;;;;;;33.45;32.89;96105.91;5021587;28;20080;-61
2021/06/18 11:28:47;;;;;;;5.30;4.80;;;;;;;33.57;34.64;96113.66;4967337;28;20525;-62
2021/06/18 11:31:20;;;;;;;6.65;5.30;;;;;;;33.79;33.61;96100.13;5018140;28;20069;-61
2021/06/18 11:33:59;;;;;;;7.97;4.85;;;;;;;33.74;34.08;96102.94;5026268;28;20084;-61
2021/06/18 11:36:53;;;;;;;5.50;4.85;;;;;;;33.67;31.15;96096.25;5021751;28;20521;-62
2021/06/18 11:39:29;;;;;;;4.35;3.92;;;;;;;33.09;28.36;96101.00;5022144;28;20062;-62